sensor_id;sensor_type;location;lat;lon;timestamp;temperature;humidity
20141;DHT22;10231;47.702;9.826;2022-08-21T00:00:14;15.50;99.90
20141;DHT22;10231;47.702;9.826;2022-08-21T00:02:59;15.40;99.90
20141;DHT22;10231;47.702;9.826;2022-08-21T00:05:27;15.50;99.90
20141;DHT22;10231;47.702;9.826;2022-08-21T00:07:55;15.40;99.90
20141;DHT22;10231;47.702;9.826;2022-08-21T00:10:21;15.40;99.90
20141;DHT22;10231;47.702;9.826;2022-08-21T00:12:47;15.40;99.90
20141;DHT22;10231;47.702;9.826;2022-08-21T00:15:18;15.40;99.90
20141;DHT22;10231;47.702;9.826;2022-08-21T00:17:44;15.40;99.90
20141;DHT22;10231;47.702;9.826;2022-08-21T00:20:11;15.40;99.90
20141;DHT22;10231;47.702;9.826;2022-08-21T00:22:37;15.40;99.90
20141;DHT22;10231;47.702;9.826;2022-08-21T00:25:05;15.30;99.90
20141;DHT22;10231;47.702;9.826;2022-08-21T00:27:32;15.30;99.90
20141;DHT22;10231;47.702;9.826;2022-08-21T00:29:58;15.30;99.90
20141;DHT22;10231;47.702;9.826;2022-08-21T00:32:26;15.30;99.90
20141;DHT22;10231;47.702;9.826;2022-08-21T00:34:52;15.30;99.90
20141;DHT22;10231;47.702;9.826;2022-08-21T00:37:18;15.30;99.90
20141;DHT22;10231;47.702;9.826;2022-08-21T00:39:44;15.20;99.90
20141;DHT22;10231;47.702;9.826;2022-08-21T00:42:11;15.10;99.90
20141;DHT22;10231;47.702;9.826;2022-08-21T00:44:41;15.00;99.90
20141;DHT22;10231;47.702;9.826;2022-08-21T00:47:08;14.90;99.90
20141;DHT22;10231;47.702;9.826;2022-08-21T00:49:34;14.90;99.90
20141;DHT22;10231;47.702;9.826;2022-08-21T00:52:01;15.00;99.90
20141;DHT22;10231;47.702;9.826;2022-08-21T00:54:28;14.90;99.90
20141;DHT22;10231;47.702;9.826;2022-08-21T00:56:59;14.90;99.90
20141;DHT22;10231;47.702;9.826;2022-08-21T00:59:26;14.90;99.90
20141;DHT22;10231;47.702;9.826;2022-08-21T01:01:53;14.90;99.90
20141;DHT22;10231;47.702;9.826;2022-08-21T01:04:19;14.80;99.90
20141;DHT22;10231;47.702;9.826;2022-08-21T01:06:45;14.70;99.90
20141;DHT22;10231;47.702;9.826;2022-08-21T01:09:12;14.70;99.90
20141;DHT22;10231;47.702;9.826;2022-08-21T01:11:39;14.70;99.90
20141;DHT22;10231;47.702;9.826;2022-08-21T01:14:05;14.70;99.90
20141;DHT22;10231;47.702;9.826;2022-08-21T01:16:31;14.70;99.90
20141;DHT22;10231;47.702;9.826;2022-08-21T01:18:58;14.70;99.90
20141;DHT22;10231;47.702;9.826;2022-08-21T01:21:26;14.70;99.90
20141;DHT22;10231;47.702;9.826;2022-08-21T01:23:53;14.60;99.90
20141;DHT22;10231;47.702;9.826;2022-08-21T01:26:22;14.70;99.90
20141;DHT22;10231;47.702;9.826;2022-08-21T01:31:38;14.70;99.90
20141;DHT22;10231;47.702;9.826;2022-08-21T01:34:04;14.80;99.90
20141;DHT22;10231;47.702;9.826;2022-08-21T01:36:30;14.80;99.90
20141;DHT22;10231;47.702;9.826;2022-08-21T01:38:56;14.80;99.90
20141;DHT22;10231;47.702;9.826;2022-08-21T01:41:22;14.70;99.90
20141;DHT22;10231;47.702;9.826;2022-08-21T01:43:48;14.70;99.90
20141;DHT22;10231;47.702;9.826;2022-08-21T01:46:15;14.70;99.90
20141;DHT22;10231;47.702;9.826;2022-08-21T01:48:41;14.70;99.90
20141;DHT22;10231;47.702;9.826;2022-08-21T01:51:08;14.70;99.90
20141;DHT22;10231;47.702;9.826;2022-08-21T01:53:35;14.60;99.90
20141;DHT22;10231;47.702;9.826;2022-08-21T01:56:04;14.60;99.90
20141;DHT22;10231;47.702;9.826;2022-08-21T01:58:29;14.40;99.90
20141;DHT22;10231;47.702;9.826;2022-08-21T02:00:55;14.40;99.90
20141;DHT22;10231;47.702;9.826;2022-08-21T02:03:21;14.40;99.90
20141;DHT22;10231;47.702;9.826;2022-08-21T02:05:46;14.20;99.90
20141;DHT22;10231;47.702;9.826;2022-08-21T02:08:12;14.20;99.90
20141;DHT22;10231;47.702;9.826;2022-08-21T02:10:38;14.10;99.90
20141;DHT22;10231;47.702;9.826;2022-08-21T02:13:04;14.10;99.90
20141;DHT22;10231;47.702;9.826;2022-08-21T02:15:30;14.10;99.90
20141;DHT22;10231;47.702;9.826;2022-08-21T02:17:59;14.00;99.90
20141;DHT22;10231;47.702;9.826;2022-08-21T02:20:37;14.10;99.90
20141;DHT22;10231;47.702;9.826;2022-08-21T02:23:04;14.10;99.90
20141;DHT22;10231;47.702;9.826;2022-08-21T02:25:30;14.10;99.90
20141;DHT22;10231;47.702;9.826;2022-08-21T02:27:58;14.10;99.90
20141;DHT22;10231;47.702;9.826;2022-08-21T02:30:27;14.10;99.90
20141;DHT22;10231;47.702;9.826;2022-08-21T02:32:53;14.10;99.90
20141;DHT22;10231;47.702;9.826;2022-08-21T02:35:19;14.10;99.90
20141;DHT22;10231;47.702;9.826;2022-08-21T02:40:14;14.10;99.90
20141;DHT22;10231;47.702;9.826;2022-08-21T02:42:41;14.00;99.90
20141;DHT22;10231;47.702;9.826;2022-08-21T02:45:07;13.90;99.90
20141;DHT22;10231;47.702;9.826;2022-08-21T02:47:33;14.00;99.90
20141;DHT22;10231;47.702;9.826;2022-08-21T02:49:59;14.10;99.90
20141;DHT22;10231;47.702;9.826;2022-08-21T02:52:24;14.10;99.90
20141;DHT22;10231;47.702;9.826;2022-08-21T02:54:50;14.10;99.90
20141;DHT22;10231;47.702;9.826;2022-08-21T02:57:16;14.10;99.90
20141;DHT22;10231;47.702;9.826;2022-08-21T02:59:41;14.10;99.90
20141;DHT22;10231;47.702;9.826;2022-08-21T03:02:07;14.20;99.90
20141;DHT22;10231;47.702;9.826;2022-08-21T03:04:33;14.20;99.90
20141;DHT22;10231;47.702;9.826;2022-08-21T03:06:59;14.20;99.90
20141;DHT22;10231;47.702;9.826;2022-08-21T03:09:25;14.10;99.90
20141;DHT22;10231;47.702;9.826;2022-08-21T03:11:51;14.10;99.90
20141;DHT22;10231;47.702;9.826;2022-08-21T03:14:17;14.10;99.90
20141;DHT22;10231;47.702;9.826;2022-08-21T03:16:44;14.10;99.90
20141;DHT22;10231;47.702;9.826;2022-08-21T03:19:09;14.10;99.90
20141;DHT22;10231;47.702;9.826;2022-08-21T03:21:35;14.00;99.90
20141;DHT22;10231;47.702;9.826;2022-08-21T03:24:01;13.90;99.90
20141;DHT22;10231;47.702;9.826;2022-08-21T03:26:27;13.90;99.90
20141;DHT22;10231;47.702;9.826;2022-08-21T03:28:52;13.80;99.90
20141;DHT22;10231;47.702;9.826;2022-08-21T03:31:18;13.70;99.90
20141;DHT22;10231;47.702;9.826;2022-08-21T03:33:44;13.70;99.90
20141;DHT22;10231;47.702;9.826;2022-08-21T03:36:10;13.70;99.90
20141;DHT22;10231;47.702;9.826;2022-08-21T03:38:37;13.60;99.90
20141;DHT22;10231;47.702;9.826;2022-08-21T03:41:04;13.50;99.90
20141;DHT22;10231;47.702;9.826;2022-08-21T03:43:32;13.50;99.90
20141;DHT22;10231;47.702;9.826;2022-08-21T03:46:00;13.50;99.90
20141;DHT22;10231;47.702;9.826;2022-08-21T03:48:25;13.40;99.90
20141;DHT22;10231;47.702;9.826;2022-08-21T03:50:52;13.40;99.90
20141;DHT22;10231;47.702;9.826;2022-08-21T03:53:18;13.40;99.90
20141;DHT22;10231;47.702;9.826;2022-08-21T03:55:46;13.40;99.90
20141;DHT22;10231;47.702;9.826;2022-08-21T03:58:14;13.50;99.90
20141;DHT22;10231;47.702;9.826;2022-08-21T04:00:40;13.50;99.90
20141;DHT22;10231;47.702;9.826;2022-08-21T04:03:06;13.50;99.90
20141;DHT22;10231;47.702;9.826;2022-08-21T04:05:32;13.50;99.90
20141;DHT22;10231;47.702;9.826;2022-08-21T04:08:00;13.40;99.90
20141;DHT22;10231;47.702;9.826;2022-08-21T04:10:29;13.50;99.90
20141;DHT22;10231;47.702;9.826;2022-08-21T04:12:56;13.50;99.90
20141;DHT22;10231;47.702;9.826;2022-08-21T04:15:22;13.50;99.90
20141;DHT22;10231;47.702;9.826;2022-08-21T04:17:48;13.40;99.90
20141;DHT22;10231;47.702;9.826;2022-08-21T04:20:15;13.40;99.90
20141;DHT22;10231;47.702;9.826;2022-08-21T04:22:41;13.40;99.90
20141;DHT22;10231;47.702;9.826;2022-08-21T04:25:07;13.40;99.90
20141;DHT22;10231;47.702;9.826;2022-08-21T04:27:34;13.40;99.90
20141;DHT22;10231;47.702;9.826;2022-08-21T04:30:00;13.50;99.90
20141;DHT22;10231;47.702;9.826;2022-08-21T04:32:26;13.50;99.90
20141;DHT22;10231;47.702;9.826;2022-08-21T04:35:06;13.50;99.90
20141;DHT22;10231;47.702;9.826;2022-08-21T04:37:32;13.50;99.90
20141;DHT22;10231;47.702;9.826;2022-08-21T04:39:57;13.50;99.90
20141;DHT22;10231;47.702;9.826;2022-08-21T04:42:27;13.40;99.90
20141;DHT22;10231;47.702;9.826;2022-08-21T04:44:53;13.30;99.90
20141;DHT22;10231;47.702;9.826;2022-08-21T04:47:20;13.30;99.90
20141;DHT22;10231;47.702;9.826;2022-08-21T04:49:46;13.20;99.90
20141;DHT22;10231;47.702;9.826;2022-08-21T04:52:13;13.20;99.90
20141;DHT22;10231;47.702;9.826;2022-08-21T04:54:42;13.20;99.90
20141;DHT22;10231;47.702;9.826;2022-08-21T04:57:10;13.20;99.90
20141;DHT22;10231;47.702;9.826;2022-08-21T04:59:39;13.30;99.90
20141;DHT22;10231;47.702;9.826;2022-08-21T05:02:07;13.30;99.90
20141;DHT22;10231;47.702;9.826;2022-08-21T05:04:37;13.40;99.90
20141;DHT22;10231;47.702;9.826;2022-08-21T05:07:06;13.50;99.90
20141;DHT22;10231;47.702;9.826;2022-08-21T05:09:33;13.50;99.90
20141;DHT22;10231;47.702;9.826;2022-08-21T05:12:01;13.50;99.90
20141;DHT22;10231;47.702;9.826;2022-08-21T05:14:27;13.60;99.90
20141;DHT22;10231;47.702;9.826;2022-08-21T05:16:53;13.60;99.90
20141;DHT22;10231;47.702;9.826;2022-08-21T05:19:19;13.60;99.90
20141;DHT22;10231;47.702;9.826;2022-08-21T05:21:46;13.60;99.90
20141;DHT22;10231;47.702;9.826;2022-08-21T05:24:13;13.60;99.90
20141;DHT22;10231;47.702;9.826;2022-08-21T05:26:39;13.70;99.90
20141;DHT22;10231;47.702;9.826;2022-08-21T05:29:06;13.70;99.90
20141;DHT22;10231;47.702;9.826;2022-08-21T05:31:31;13.70;99.90
20141;DHT22;10231;47.702;9.826;2022-08-21T05:33:57;13.80;99.90
20141;DHT22;10231;47.702;9.826;2022-08-21T05:36:23;13.80;99.90
20141;DHT22;10231;47.702;9.826;2022-08-21T05:38:49;13.80;99.90
20141;DHT22;10231;47.702;9.826;2022-08-21T05:41:14;13.80;99.90
20141;DHT22;10231;47.702;9.826;2022-08-21T05:43:40;13.90;99.90
20141;DHT22;10231;47.702;9.826;2022-08-21T05:46:07;13.80;99.90
20141;DHT22;10231;47.702;9.826;2022-08-21T05:48:34;13.80;99.90
20141;DHT22;10231;47.702;9.826;2022-08-21T05:51:09;13.80;99.90
20141;DHT22;10231;47.702;9.826;2022-08-21T05:53:36;13.80;99.90
20141;DHT22;10231;47.702;9.826;2022-08-21T05:56:02;13.90;99.90
20141;DHT22;10231;47.702;9.826;2022-08-21T05:58:29;13.80;99.90
20141;DHT22;10231;47.702;9.826;2022-08-21T06:00:56;13.80;99.90
20141;DHT22;10231;47.702;9.826;2022-08-21T06:03:27;13.80;99.90
20141;DHT22;10231;47.702;9.826;2022-08-21T06:05:54;13.80;99.90
20141;DHT22;10231;47.702;9.826;2022-08-21T06:08:20;13.90;99.90
20141;DHT22;10231;47.702;9.826;2022-08-21T06:10:47;14.00;99.90
20141;DHT22;10231;47.702;9.826;2022-08-21T06:13:14;14.10;99.90
20141;DHT22;10231;47.702;9.826;2022-08-21T06:15:40;14.20;99.90
20141;DHT22;10231;47.702;9.826;2022-08-21T06:18:06;14.20;99.90
20141;DHT22;10231;47.702;9.826;2022-08-21T06:20:32;14.30;99.90
20141;DHT22;10231;47.702;9.826;2022-08-21T06:22:58;14.40;99.90
20141;DHT22;10231;47.702;9.826;2022-08-21T06:25:24;14.40;99.90
20141;DHT22;10231;47.702;9.826;2022-08-21T06:27:50;14.60;99.90
20141;DHT22;10231;47.702;9.826;2022-08-21T06:30:16;14.70;99.90
20141;DHT22;10231;47.702;9.826;2022-08-21T06:32:42;14.80;99.90
20141;DHT22;10231;47.702;9.826;2022-08-21T06:35:08;14.90;99.90
20141;DHT22;10231;47.702;9.826;2022-08-21T06:37:34;15.00;99.90
20141;DHT22;10231;47.702;9.826;2022-08-21T06:40:00;15.00;99.90
20141;DHT22;10231;47.702;9.826;2022-08-21T06:42:26;15.10;99.90
20141;DHT22;10231;47.702;9.826;2022-08-21T06:44:53;15.20;99.90
20141;DHT22;10231;47.702;9.826;2022-08-21T06:47:18;15.30;99.90
20141;DHT22;10231;47.702;9.826;2022-08-21T06:49:44;15.40;99.90
20141;DHT22;10231;47.702;9.826;2022-08-21T06:52:11;15.40;99.90
20141;DHT22;10231;47.702;9.826;2022-08-21T06:54:38;15.50;99.90
20141;DHT22;10231;47.702;9.826;2022-08-21T06:57:03;15.60;99.90
20141;DHT22;10231;47.702;9.826;2022-08-21T06:59:30;15.70;99.90
20141;DHT22;10231;47.702;9.826;2022-08-21T07:01:55;15.80;99.90
20141;DHT22;10231;47.702;9.826;2022-08-21T07:04:21;15.80;99.90
20141;DHT22;10231;47.702;9.826;2022-08-21T07:06:47;15.90;99.90
20141;DHT22;10231;47.702;9.826;2022-08-21T07:09:12;16.00;99.90
20141;DHT22;10231;47.702;9.826;2022-08-21T07:11:38;16.00;99.90
20141;DHT22;10231;47.702;9.826;2022-08-21T07:14:04;16.10;99.90
20141;DHT22;10231;47.702;9.826;2022-08-21T07:16:30;16.20;99.90
20141;DHT22;10231;47.702;9.826;2022-08-21T07:18:56;16.20;99.90
20141;DHT22;10231;47.702;9.826;2022-08-21T07:21:21;16.30;99.90
20141;DHT22;10231;47.702;9.826;2022-08-21T07:23:50;16.30;99.90
20141;DHT22;10231;47.702;9.826;2022-08-21T07:26:19;16.40;99.90
20141;DHT22;10231;47.702;9.826;2022-08-21T07:28:46;16.40;99.90
20141;DHT22;10231;47.702;9.826;2022-08-21T07:31:15;16.50;99.90
20141;DHT22;10231;47.702;9.826;2022-08-21T07:33:41;16.50;99.90
20141;DHT22;10231;47.702;9.826;2022-08-21T07:36:08;16.60;99.90
20141;DHT22;10231;47.702;9.826;2022-08-21T07:38:34;16.60;99.90
20141;DHT22;10231;47.702;9.826;2022-08-21T07:41:01;16.70;99.90
20141;DHT22;10231;47.702;9.826;2022-08-21T07:43:28;16.70;99.90
20141;DHT22;10231;47.702;9.826;2022-08-21T07:45:55;16.80;99.90
20141;DHT22;10231;47.702;9.826;2022-08-21T07:48:21;16.80;99.90
20141;DHT22;10231;47.702;9.826;2022-08-21T07:50:47;16.90;99.90
20141;DHT22;10231;47.702;9.826;2022-08-21T07:53:13;16.90;99.90
20141;DHT22;10231;47.702;9.826;2022-08-21T07:55:39;17.00;99.90
20141;DHT22;10231;47.702;9.826;2022-08-21T07:58:05;17.00;99.90
20141;DHT22;10231;47.702;9.826;2022-08-21T08:00:32;17.10;99.90
20141;DHT22;10231;47.702;9.826;2022-08-21T08:02:58;17.10;99.90
20141;DHT22;10231;47.702;9.826;2022-08-21T08:05:27;17.20;99.90
20141;DHT22;10231;47.702;9.826;2022-08-21T08:07:53;17.20;99.90
20141;DHT22;10231;47.702;9.826;2022-08-21T08:10:19;17.20;99.90
20141;DHT22;10231;47.702;9.826;2022-08-21T08:12:46;17.30;99.90
20141;DHT22;10231;47.702;9.826;2022-08-21T08:15:15;17.30;99.90
20141;DHT22;10231;47.702;9.826;2022-08-21T08:17:41;17.40;99.90
20141;DHT22;10231;47.702;9.826;2022-08-21T08:20:09;17.40;99.90
20141;DHT22;10231;47.702;9.826;2022-08-21T08:22:36;17.40;99.90
20141;DHT22;10231;47.702;9.826;2022-08-21T08:25:03;17.50;99.90
20141;DHT22;10231;47.702;9.826;2022-08-21T08:27:29;17.50;99.90
20141;DHT22;10231;47.702;9.826;2022-08-21T08:29:55;17.50;99.90
20141;DHT22;10231;47.702;9.826;2022-08-21T08:32:21;17.60;99.90
20141;DHT22;10231;47.702;9.826;2022-08-21T08:34:48;17.70;99.90
20141;DHT22;10231;47.702;9.826;2022-08-21T08:37:18;17.70;99.90
20141;DHT22;10231;47.702;9.826;2022-08-21T08:39:44;17.70;99.90
20141;DHT22;10231;47.702;9.826;2022-08-21T08:42:33;17.70;99.90
20141;DHT22;10231;47.702;9.826;2022-08-21T08:45:02;17.80;99.90
20141;DHT22;10231;47.702;9.826;2022-08-21T08:47:30;17.80;99.90
20141;DHT22;10231;47.702;9.826;2022-08-21T08:50:05;17.90;99.90
20141;DHT22;10231;47.702;9.826;2022-08-21T08:52:35;17.90;99.90
20141;DHT22;10231;47.702;9.826;2022-08-21T08:55:08;18.00;99.90
20141;DHT22;10231;47.702;9.826;2022-08-21T08:57:36;17.90;99.90
20141;DHT22;10231;47.702;9.826;2022-08-21T09:00:13;17.90;99.90
20141;DHT22;10231;47.702;9.826;2022-08-21T09:02:43;17.90;99.90
20141;DHT22;10231;47.702;9.826;2022-08-21T09:05:30;18.00;99.90
20141;DHT22;10231;47.702;9.826;2022-08-21T09:24:01;18.30;99.90
20141;DHT22;10231;47.702;9.826;2022-08-21T09:26:35;18.20;99.90
20141;DHT22;10231;47.702;9.826;2022-08-21T09:29:02;18.20;99.90
20141;DHT22;10231;47.702;9.826;2022-08-21T09:31:31;18.30;99.90
20141;DHT22;10231;47.702;9.826;2022-08-21T09:34:09;18.30;99.90
20141;DHT22;10231;47.702;9.826;2022-08-21T09:36:47;18.40;99.90
20141;DHT22;10231;47.702;9.826;2022-08-21T09:39:22;18.40;99.90
20141;DHT22;10231;47.702;9.826;2022-08-21T09:42:00;18.40;99.90
20141;DHT22;10231;47.702;9.826;2022-08-21T09:44:28;18.50;99.90
20141;DHT22;10231;47.702;9.826;2022-08-21T09:46:54;18.50;99.90
20141;DHT22;10231;47.702;9.826;2022-08-21T09:49:32;18.50;99.90
20141;DHT22;10231;47.702;9.826;2022-08-21T09:52:00;18.60;99.90
20141;DHT22;10231;47.702;9.826;2022-08-21T09:54:32;18.60;99.90
20141;DHT22;10231;47.702;9.826;2022-08-21T09:57:23;18.60;99.90
20141;DHT22;10231;47.702;9.826;2022-08-21T10:00:27;18.70;99.90
20141;DHT22;10231;47.702;9.826;2022-08-21T10:03:10;18.90;99.90
20141;DHT22;10231;47.702;9.826;2022-08-21T10:05:37;19.00;99.90
20141;DHT22;10231;47.702;9.826;2022-08-21T10:08:03;19.10;99.90
20141;DHT22;10231;47.702;9.826;2022-08-21T10:10:32;19.20;99.90
20141;DHT22;10231;47.702;9.826;2022-08-21T10:21:36;19.30;99.90
20141;DHT22;10231;47.702;9.826;2022-08-21T10:27:03;19.50;99.90
20141;DHT22;10231;47.702;9.826;2022-08-21T10:35:17;19.60;99.90
20141;DHT22;10231;47.702;9.826;2022-08-21T10:43:23;19.60;99.90
20141;DHT22;10231;47.702;9.826;2022-08-21T10:46:13;19.70;99.90
20141;DHT22;10231;47.702;9.826;2022-08-21T10:48:44;19.70;99.90
20141;DHT22;10231;47.702;9.826;2022-08-21T10:51:20;19.80;99.90
20141;DHT22;10231;47.702;9.826;2022-08-21T10:56:31;19.80;99.90
20141;DHT22;10231;47.702;9.826;2022-08-21T11:02:20;20.00;99.90
20141;DHT22;10231;47.702;9.826;2022-08-21T11:05:10;20.00;99.90
20141;DHT22;10231;47.702;9.826;2022-08-21T11:08:05;20.00;99.90
20141;DHT22;10231;47.702;9.826;2022-08-21T11:10:44;20.00;99.90
20141;DHT22;10231;47.702;9.826;2022-08-21T11:18:26;19.80;99.90
20141;DHT22;10231;47.702;9.826;2022-08-21T11:27:03;19.90;99.90
20141;DHT22;10231;47.702;9.826;2022-08-21T11:29:34;19.90;99.90
20141;DHT22;10231;47.702;9.826;2022-08-21T11:46:31;20.50;99.90
20141;DHT22;10231;47.702;9.826;2022-08-21T11:52:10;20.20;99.90
20141;DHT22;10231;47.702;9.826;2022-08-21T11:54:39;20.20;99.90
20141;DHT22;10231;47.702;9.826;2022-08-21T12:02:14;20.00;99.90
20141;DHT22;10231;47.702;9.826;2022-08-21T12:04:51;20.10;99.90
20141;DHT22;10231;47.702;9.826;2022-08-21T12:07:37;20.20;99.90
20141;DHT22;10231;47.702;9.826;2022-08-21T12:10:07;20.30;99.90
20141;DHT22;10231;47.702;9.826;2022-08-21T12:12:36;20.40;99.90
20141;DHT22;10231;47.702;9.826;2022-08-21T12:17:39;20.60;99.90
20141;DHT22;10231;47.702;9.826;2022-08-21T12:20:22;20.80;99.90
20141;DHT22;10231;47.702;9.826;2022-08-21T12:26:00;20.90;99.90
20141;DHT22;10231;47.702;9.826;2022-08-21T12:28:27;20.90;99.90
20141;DHT22;10231;47.702;9.826;2022-08-21T12:30:54;20.90;99.90
20141;DHT22;10231;47.702;9.826;2022-08-21T12:33:36;20.90;99.90
20141;DHT22;10231;47.702;9.826;2022-08-21T12:36:09;21.00;99.90
20141;DHT22;10231;47.702;9.826;2022-08-21T12:38:51;21.00;99.90
20141;DHT22;10231;47.702;9.826;2022-08-21T12:41:44;21.10;99.90
20141;DHT22;10231;47.702;9.826;2022-08-21T12:44:14;21.20;99.90
20141;DHT22;10231;47.702;9.826;2022-08-21T12:46:56;21.40;99.90
20141;DHT22;10231;47.702;9.826;2022-08-21T12:49:33;21.50;99.90
20141;DHT22;10231;47.702;9.826;2022-08-21T12:52:23;21.60;99.90
20141;DHT22;10231;47.702;9.826;2022-08-21T12:54:49;21.70;99.90
20141;DHT22;10231;47.702;9.826;2022-08-21T12:57:36;21.80;99.90
20141;DHT22;10231;47.702;9.826;2022-08-21T13:00:06;21.90;99.90
20141;DHT22;10231;47.702;9.826;2022-08-21T13:02:38;22.10;99.90
20141;DHT22;10231;47.702;9.826;2022-08-21T13:05:06;22.20;99.90
20141;DHT22;10231;47.702;9.826;2022-08-21T13:07:35;22.30;99.90
20141;DHT22;10231;47.702;9.826;2022-08-21T13:10:16;22.40;99.90
20141;DHT22;10231;47.702;9.826;2022-08-21T13:12:43;22.50;99.90
20141;DHT22;10231;47.702;9.826;2022-08-21T13:15:11;22.60;99.90
20141;DHT22;10231;47.702;9.826;2022-08-21T13:17:40;22.70;99.90
20141;DHT22;10231;47.702;9.826;2022-08-21T13:20:37;22.80;99.90
20141;DHT22;10231;47.702;9.826;2022-08-21T13:23:08;22.80;99.40
20141;DHT22;10231;47.702;9.826;2022-08-21T13:25:41;22.90;99.80
20141;DHT22;10231;47.702;9.826;2022-08-21T13:28:11;23.10;99.50
20141;DHT22;10231;47.702;9.826;2022-08-21T13:30:50;23.20;98.60
20141;DHT22;10231;47.702;9.826;2022-08-21T13:33:21;23.20;99.90
20141;DHT22;10231;47.702;9.826;2022-08-21T13:35:49;23.40;99.90
20141;DHT22;10231;47.702;9.826;2022-08-21T13:38:19;23.50;99.90
20141;DHT22;10231;47.702;9.826;2022-08-21T13:43:19;23.70;99.90
20141;DHT22;10231;47.702;9.826;2022-08-21T13:45:50;23.80;99.90
20141;DHT22;10231;47.702;9.826;2022-08-21T13:48:16;23.90;99.90
20141;DHT22;10231;47.702;9.826;2022-08-21T13:50:43;24.00;99.70
20141;DHT22;10231;47.702;9.826;2022-08-21T13:55:56;24.20;99.90
20141;DHT22;10231;47.702;9.826;2022-08-21T13:58:30;24.20;97.80
20141;DHT22;10231;47.702;9.826;2022-08-21T14:00:57;24.30;97.50
20141;DHT22;10231;47.702;9.826;2022-08-21T14:03:38;24.30;98.20
20141;DHT22;10231;47.702;9.826;2022-08-21T14:06:16;24.40;99.70
20141;DHT22;10231;47.702;9.826;2022-08-21T14:08:49;24.60;98.80
20141;DHT22;10231;47.702;9.826;2022-08-21T14:11:16;24.70;98.20
20141;DHT22;10231;47.702;9.826;2022-08-21T14:13:48;24.90;97.30
20141;DHT22;10231;47.702;9.826;2022-08-21T14:16:24;24.90;97.20
20141;DHT22;10231;47.702;9.826;2022-08-21T14:21:34;25.20;95.50
20141;DHT22;10231;47.702;9.826;2022-08-21T14:24:09;25.20;96.40
20141;DHT22;10231;47.702;9.826;2022-08-21T14:27:22;25.40;95.80
20141;DHT22;10231;47.702;9.826;2022-08-21T14:29:26;25.50;96.60
20141;DHT22;10231;47.702;9.826;2022-08-21T14:31:58;25.70;97.60
20141;DHT22;10231;47.702;9.826;2022-08-21T14:34:26;25.90;97.90
20141;DHT22;10231;47.702;9.826;2022-08-21T14:36:53;26.00;93.60
20141;DHT22;10231;47.702;9.826;2022-08-21T14:39:20;26.10;93.00
20141;DHT22;10231;47.702;9.826;2022-08-21T14:41:45;26.10;93.40
20141;DHT22;10231;47.702;9.826;2022-08-21T14:44:14;26.20;94.30
20141;DHT22;10231;47.702;9.826;2022-08-21T14:46:41;26.20;93.20
20141;DHT22;10231;47.702;9.826;2022-08-21T14:49:06;26.20;94.90
20141;DHT22;10231;47.702;9.826;2022-08-21T14:51:32;26.10;93.60
20141;DHT22;10231;47.702;9.826;2022-08-21T14:53:58;26.20;93.10
20141;DHT22;10231;47.702;9.826;2022-08-21T14:56:24;26.10;94.80
20141;DHT22;10231;47.702;9.826;2022-08-21T14:58:51;26.00;94.70
20141;DHT22;10231;47.702;9.826;2022-08-21T15:01:18;26.10;95.70
20141;DHT22;10231;47.702;9.826;2022-08-21T15:03:46;26.50;91.70
20141;DHT22;10231;47.702;9.826;2022-08-21T15:06:13;26.50;91.10
20141;DHT22;10231;47.702;9.826;2022-08-21T15:08:39;26.20;90.90
20141;DHT22;10231;47.702;9.826;2022-08-21T15:11:06;26.10;92.80
20141;DHT22;10231;47.702;9.826;2022-08-21T15:13:32;26.40;91.20
20141;DHT22;10231;47.702;9.826;2022-08-21T15:15:58;26.70;93.10
20141;DHT22;10231;47.702;9.826;2022-08-21T15:18:26;27.10;91.10
20141;DHT22;10231;47.702;9.826;2022-08-21T15:20:52;27.20;86.70
20141;DHT22;10231;47.702;9.826;2022-08-21T15:23:18;27.40;90.20
20141;DHT22;10231;47.702;9.826;2022-08-21T15:25:46;27.50;85.50
20141;DHT22;10231;47.702;9.826;2022-08-21T15:28:14;27.70;85.20
20141;DHT22;10231;47.702;9.826;2022-08-21T15:30:40;28.00;87.50
20141;DHT22;10231;47.702;9.826;2022-08-21T15:33:07;28.20;87.30
20141;DHT22;10231;47.702;9.826;2022-08-21T15:35:33;28.40;86.80
20141;DHT22;10231;47.702;9.826;2022-08-21T15:37:59;28.60;84.80
20141;DHT22;10231;47.702;9.826;2022-08-21T15:40:25;28.80;84.10
20141;DHT22;10231;47.702;9.826;2022-08-21T15:42:54;28.90;85.10
20141;DHT22;10231;47.702;9.826;2022-08-21T15:45:21;29.00;84.80
20141;DHT22;10231;47.702;9.826;2022-08-21T15:47:49;29.20;82.20
20141;DHT22;10231;47.702;9.826;2022-08-21T15:50:14;29.30;80.20
20141;DHT22;10231;47.702;9.826;2022-08-21T15:52:40;29.30;82.80
20141;DHT22;10231;47.702;9.826;2022-08-21T15:55:07;29.50;78.40
20141;DHT22;10231;47.702;9.826;2022-08-21T15:57:34;29.60;80.10
20141;DHT22;10231;47.702;9.826;2022-08-21T16:00:07;29.60;82.90
20141;DHT22;10231;47.702;9.826;2022-08-21T16:02:39;29.60;77.90
20141;DHT22;10231;47.702;9.826;2022-08-21T16:05:06;29.70;77.00
20141;DHT22;10231;47.702;9.826;2022-08-21T16:07:32;29.90;78.10
20141;DHT22;10231;47.702;9.826;2022-08-21T16:09:58;29.90;75.10
20141;DHT22;10231;47.702;9.826;2022-08-21T16:12:27;30.20;75.40
20141;DHT22;10231;47.702;9.826;2022-08-21T16:14:53;30.80;75.50
20141;DHT22;10231;47.702;9.826;2022-08-21T16:17:27;31.20;70.00
20141;DHT22;10231;47.702;9.826;2022-08-21T16:19:54;30.90;73.30
20141;DHT22;10231;47.702;9.826;2022-08-21T16:22:20;30.60;74.60
20141;DHT22;10231;47.702;9.826;2022-08-21T16:24:45;30.10;75.20
20141;DHT22;10231;47.702;9.826;2022-08-21T16:27:11;29.80;71.80
20141;DHT22;10231;47.702;9.826;2022-08-21T16:29:39;29.40;72.90
20141;DHT22;10231;47.702;9.826;2022-08-21T16:32:05;28.90;73.70
20141;DHT22;10231;47.702;9.826;2022-08-21T16:34:31;28.60;75.90
20141;DHT22;10231;47.702;9.826;2022-08-21T16:36:58;28.40;74.90
20141;DHT22;10231;47.702;9.826;2022-08-21T16:39:24;28.20;75.80
20141;DHT22;10231;47.702;9.826;2022-08-21T16:41:50;28.00;75.40
20141;DHT22;10231;47.702;9.826;2022-08-21T16:44:17;27.70;76.50
20141;DHT22;10231;47.702;9.826;2022-08-21T16:46:43;27.40;77.40
20141;DHT22;10231;47.702;9.826;2022-08-21T16:49:09;27.10;77.90
20141;DHT22;10231;47.702;9.826;2022-08-21T16:51:36;26.90;77.30
20141;DHT22;10231;47.702;9.826;2022-08-21T16:54:02;26.60;77.00
20141;DHT22;10231;47.702;9.826;2022-08-21T16:56:29;26.40;79.80
20141;DHT22;10231;47.702;9.826;2022-08-21T16:58:56;26.20;82.70
20141;DHT22;10231;47.702;9.826;2022-08-21T17:01:25;26.00;79.50
20141;DHT22;10231;47.702;9.826;2022-08-21T17:03:51;25.80;82.00
20141;DHT22;10231;47.702;9.826;2022-08-21T17:06:19;25.70;83.20
20141;DHT22;10231;47.702;9.826;2022-08-21T17:08:46;25.50;84.90
20141;DHT22;10231;47.702;9.826;2022-08-21T17:11:37;25.20;86.20
20141;DHT22;10231;47.702;9.826;2022-08-21T17:14:05;25.10;87.20
20141;DHT22;10231;47.702;9.826;2022-08-21T17:16:31;24.90;88.40